sensor_id;sensor_type;location;lat;lon;timestamp;temperature;humidity
10171;DHT22;5127;50.922;6.988;2022-08-14T00:01:35;24.60;39.10
10171;DHT22;5127;50.922;6.988;2022-08-14T00:04:03;24.50;39.50
10171;DHT22;5127;50.922;6.988;2022-08-14T00:06:30;24.50;39.60
10171;DHT22;5127;50.922;6.988;2022-08-14T00:08:58;24.50;39.50
10171;DHT22;5127;50.922;6.988;2022-08-14T00:11:27;24.60;39.60
10171;DHT22;5127;50.922;6.988;2022-08-14T00:13:54;24.50;39.60
10171;DHT22;5127;50.922;6.988;2022-08-14T00:16:22;24.50;39.90
10171;DHT22;5127;50.922;6.988;2022-08-14T00:18:50;24.40;39.80
10171;DHT22;5127;50.922;6.988;2022-08-14T00:21:17;24.40;39.80
10171;DHT22;5127;50.922;6.988;2022-08-14T00:23:45;24.40;39.80
10171;DHT22;5127;50.922;6.988;2022-08-14T00:26:12;24.30;40.00
10171;DHT22;5127;50.922;6.988;2022-08-14T00:28:40;24.30;40.00
10171;DHT22;5127;50.922;6.988;2022-08-14T00:31:08;24.30;40.40
10171;DHT22;5127;50.922;6.988;2022-08-14T00:33:35;24.30;40.40
10171;DHT22;5127;50.922;6.988;2022-08-14T00:36:03;24.30;40.60
10171;DHT22;5127;50.922;6.988;2022-08-14T00:38:31;24.20;40.50
10171;DHT22;5127;50.922;6.988;2022-08-14T00:40:58;24.30;40.70
10171;DHT22;5127;50.922;6.988;2022-08-14T00:43:25;24.20;40.60
10171;DHT22;5127;50.922;6.988;2022-08-14T00:45:54;24.20;40.90
10171;DHT22;5127;50.922;6.988;2022-08-14T00:48:22;24.10;41.10
10171;DHT22;5127;50.922;6.988;2022-08-14T00:50:49;24.10;41.00
10171;DHT22;5127;50.922;6.988;2022-08-14T00:53:18;24.10;41.10
10171;DHT22;5127;50.922;6.988;2022-08-14T00:55:45;24.10;41.20
10171;DHT22;5127;50.922;6.988;2022-08-14T00:58:14;24.10;41.60
10171;DHT22;5127;50.922;6.988;2022-08-14T01:00:58;24.10;41.50
10171;DHT22;5127;50.922;6.988;2022-08-14T01:03:27;24.00;41.60
10171;DHT22;5127;50.922;6.988;2022-08-14T01:05:56;24.00;41.70
10171;DHT22;5127;50.922;6.988;2022-08-14T01:08:25;24.00;42.00
10171;DHT22;5127;50.922;6.988;2022-08-14T01:10:53;24.10;42.10
10171;DHT22;5127;50.922;6.988;2022-08-14T01:13:23;23.90;41.90
10171;DHT22;5127;50.922;6.988;2022-08-14T01:15:53;23.90;42.30
10171;DHT22;5127;50.922;6.988;2022-08-14T01:18:23;23.90;42.20
10171;DHT22;5127;50.922;6.988;2022-08-14T01:21:09;23.90;42.40
10171;DHT22;5127;50.922;6.988;2022-08-14T01:23:43;23.80;42.40
10171;DHT22;5127;50.922;6.988;2022-08-14T01:26:12;23.80;42.70
10171;DHT22;5127;50.922;6.988;2022-08-14T01:28:41;23.70;42.60
10171;DHT22;5127;50.922;6.988;2022-08-14T01:31:11;23.70;42.90
10171;DHT22;5127;50.922;6.988;2022-08-14T01:33:42;23.70;43.40
10171;DHT22;5127;50.922;6.988;2022-08-14T01:36:11;23.70;43.20
10171;DHT22;5127;50.922;6.988;2022-08-14T01:38:43;23.80;43.70
10171;DHT22;5127;50.922;6.988;2022-08-14T01:41:15;23.60;43.90
10171;DHT22;5127;50.922;6.988;2022-08-14T01:43:47;23.60;44.10
10171;DHT22;5127;50.922;6.988;2022-08-14T01:46:15;23.60;44.00
10171;DHT22;5127;50.922;6.988;2022-08-14T01:48:44;23.50;43.60
10171;DHT22;5127;50.922;6.988;2022-08-14T01:51:13;23.50;43.80
10171;DHT22;5127;50.922;6.988;2022-08-14T01:53:45;23.50;43.90
10171;DHT22;5127;50.922;6.988;2022-08-14T01:56:15;23.50;44.70
10171;DHT22;5127;50.922;6.988;2022-08-14T01:58:43;23.50;44.80
10171;DHT22;5127;50.922;6.988;2022-08-14T02:01:14;23.50;44.40
10171;DHT22;5127;50.922;6.988;2022-08-14T02:03:42;23.40;44.20
10171;DHT22;5127;50.922;6.988;2022-08-14T02:06:10;23.40;44.50
10171;DHT22;5127;50.922;6.988;2022-08-14T02:08:38;23.40;44.90
10171;DHT22;5127;50.922;6.988;2022-08-14T02:11:08;23.40;44.90
10171;DHT22;5127;50.922;6.988;2022-08-14T02:13:50;23.40;44.90
10171;DHT22;5127;50.922;6.988;2022-08-14T02:16:20;23.30;44.80
10171;DHT22;5127;50.922;6.988;2022-08-14T02:18:51;23.30;45.20
10171;DHT22;5127;50.922;6.988;2022-08-14T02:21:20;23.30;45.30
10171;DHT22;5127;50.922;6.988;2022-08-14T02:23:48;23.30;45.80
10171;DHT22;5127;50.922;6.988;2022-08-14T02:26:20;23.30;45.70
10171;DHT22;5127;50.922;6.988;2022-08-14T02:28:50;23.30;46.10
10171;DHT22;5127;50.922;6.988;2022-08-14T02:31:17;23.30;46.10
10171;DHT22;5127;50.922;6.988;2022-08-14T02:33:45;23.30;46.30
10171;DHT22;5127;50.922;6.988;2022-08-14T02:36:13;23.30;46.40
10171;DHT22;5127;50.922;6.988;2022-08-14T02:38:41;23.30;46.30
10171;DHT22;5127;50.922;6.988;2022-08-14T02:41:11;23.20;46.00
10171;DHT22;5127;50.922;6.988;2022-08-14T02:43:41;23.20;46.80
10171;DHT22;5127;50.922;6.988;2022-08-14T02:46:10;23.20;46.30
10171;DHT22;5127;50.922;6.988;2022-08-14T02:48:39;23.20;46.30
10171;DHT22;5127;50.922;6.988;2022-08-14T02:51:10;23.20;46.40
10171;DHT22;5127;50.922;6.988;2022-08-14T02:53:38;23.20;46.50
10171;DHT22;5127;50.922;6.988;2022-08-14T02:56:07;23.20;46.60
10171;DHT22;5127;50.922;6.988;2022-08-14T02:58:37;23.20;46.80
10171;DHT22;5127;50.922;6.988;2022-08-14T03:01:08;23.10;46.60
10171;DHT22;5127;50.922;6.988;2022-08-14T03:03:36;23.10;47.00
10171;DHT22;5127;50.922;6.988;2022-08-14T03:06:05;23.10;47.60
10171;DHT22;5127;50.922;6.988;2022-08-14T03:08:34;23.10;46.90
10171;DHT22;5127;50.922;6.988;2022-08-14T03:11:03;23.10;47.00
10171;DHT22;5127;50.922;6.988;2022-08-14T03:13:32;23.10;46.90
10171;DHT22;5127;50.922;6.988;2022-08-14T03:16:01;23.10;47.20
10171;DHT22;5127;50.922;6.988;2022-08-14T03:18:30;23.00;47.00
10171;DHT22;5127;50.922;6.988;2022-08-14T03:21:00;23.00;47.20
10171;DHT22;5127;50.922;6.988;2022-08-14T03:23:28;23.00;47.40
10171;DHT22;5127;50.922;6.988;2022-08-14T03:26:01;23.00;47.40
10171;DHT22;5127;50.922;6.988;2022-08-14T03:28:29;23.00;47.40
10171;DHT22;5127;50.922;6.988;2022-08-14T03:30:56;22.90;47.20
10171;DHT22;5127;50.922;6.988;2022-08-14T03:33:24;22.90;47.20
10171;DHT22;5127;50.922;6.988;2022-08-14T03:35:53;22.90;47.10
10171;DHT22;5127;50.922;6.988;2022-08-14T03:38:21;22.80;47.60
10171;DHT22;5127;50.922;6.988;2022-08-14T03:40:48;22.80;47.30
10171;DHT22;5127;50.922;6.988;2022-08-14T03:43:16;22.80;47.40
10171;DHT22;5127;50.922;6.988;2022-08-14T03:45:43;22.80;47.40
10171;DHT22;5127;50.922;6.988;2022-08-14T03:48:13;22.70;47.40
10171;DHT22;5127;50.922;6.988;2022-08-14T03:50:44;22.70;47.70
10171;DHT22;5127;50.922;6.988;2022-08-14T03:53:14;22.70;47.70
10171;DHT22;5127;50.922;6.988;2022-08-14T03:55:41;22.60;47.80
10171;DHT22;5127;50.922;6.988;2022-08-14T03:58:09;22.60;47.90
10171;DHT22;5127;50.922;6.988;2022-08-14T04:00:37;22.60;48.00
10171;DHT22;5127;50.922;6.988;2022-08-14T04:03:07;22.60;48.10
10171;DHT22;5127;50.922;6.988;2022-08-14T04:05:35;22.60;48.10
10171;DHT22;5127;50.922;6.988;2022-08-14T04:08:03;22.60;48.10
10171;DHT22;5127;50.922;6.988;2022-08-14T04:10:32;22.60;48.10
10171;DHT22;5127;50.922;6.988;2022-08-14T04:13:00;22.50;48.40
10171;DHT22;5127;50.922;6.988;2022-08-14T04:15:27;22.50;48.50
10171;DHT22;5127;50.922;6.988;2022-08-14T04:17:55;22.40;48.40
10171;DHT22;5127;50.922;6.988;2022-08-14T04:20:23;22.40;49.10
10171;DHT22;5127;50.922;6.988;2022-08-14T04:22:51;22.40;48.60
10171;DHT22;5127;50.922;6.988;2022-08-14T04:25:19;22.40;48.50
10171;DHT22;5127;50.922;6.988;2022-08-14T04:27:47;22.30;48.60
10171;DHT22;5127;50.922;6.988;2022-08-14T04:30:15;22.30;48.70
10171;DHT22;5127;50.922;6.988;2022-08-14T04:32:42;22.30;48.60
10171;DHT22;5127;50.922;6.988;2022-08-14T04:35:10;22.30;48.90
10171;DHT22;5127;50.922;6.988;2022-08-14T04:37:37;22.30;49.00
10171;DHT22;5127;50.922;6.988;2022-08-14T04:40:22;22.30;49.20
10171;DHT22;5127;50.922;6.988;2022-08-14T04:43:08;22.30;49.40
10171;DHT22;5127;50.922;6.988;2022-08-14T04:45:53;22.30;49.40
10171;DHT22;5127;50.922;6.988;2022-08-14T04:48:21;22.30;49.40
10171;DHT22;5127;50.922;6.988;2022-08-14T04:50:49;22.30;49.50
10171;DHT22;5127;50.922;6.988;2022-08-14T04:53:18;22.30;49.60
10171;DHT22;5127;50.922;6.988;2022-08-14T04:55:47;22.30;49.50
10171;DHT22;5127;50.922;6.988;2022-08-14T04:58:18;22.30;49.70
10171;DHT22;5127;50.922;6.988;2022-08-14T05:00:46;22.40;50.20
10171;DHT22;5127;50.922;6.988;2022-08-14T05:03:16;22.30;49.80
10171;DHT22;5127;50.922;6.988;2022-08-14T05:05:46;22.30;49.80
10171;DHT22;5127;50.922;6.988;2022-08-14T05:08:13;22.30;49.80
10171;DHT22;5127;50.922;6.988;2022-08-14T05:10:43;22.30;50.00
10171;DHT22;5127;50.922;6.988;2022-08-14T05:13:11;22.30;50.30
10171;DHT22;5127;50.922;6.988;2022-08-14T05:15:40;22.30;50.20
10171;DHT22;5127;50.922;6.988;2022-08-14T05:18:11;22.40;50.40
10171;DHT22;5127;50.922;6.988;2022-08-14T05:20:39;22.40;50.30
10171;DHT22;5127;50.922;6.988;2022-08-14T05:23:11;22.40;50.30
10171;DHT22;5127;50.922;6.988;2022-08-14T05:25:39;22.40;50.30
10171;DHT22;5127;50.922;6.988;2022-08-14T05:28:08;22.40;50.50
10171;DHT22;5127;50.922;6.988;2022-08-14T05:30:37;22.50;50.70
10171;DHT22;5127;50.922;6.988;2022-08-14T05:33:05;22.50;50.60
10171;DHT22;5127;50.922;6.988;2022-08-14T05:35:32;22.50;50.90
10171;DHT22;5127;50.922;6.988;2022-08-14T05:38:06;22.60;51.60
10171;DHT22;5127;50.922;6.988;2022-08-14T05:40:34;22.60;51.60
10171;DHT22;5127;50.922;6.988;2022-08-14T05:43:01;22.60;50.80
10171;DHT22;5127;50.922;6.988;2022-08-14T05:45:29;22.70;51.00
10171;DHT22;5127;50.922;6.988;2022-08-14T05:47:56;22.70;51.20
10171;DHT22;5127;50.922;6.988;2022-08-14T05:50:25;22.70;51.20
10171;DHT22;5127;50.922;6.988;2022-08-14T05:52:53;22.80;51.60
10171;DHT22;5127;50.922;6.988;2022-08-14T05:55:21;22.80;51.60
10171;DHT22;5127;50.922;6.988;2022-08-14T05:57:50;22.90;51.90
10171;DHT22;5127;50.922;6.988;2022-08-14T06:00:20;23.00;52.00
10171;DHT22;5127;50.922;6.988;2022-08-14T06:02:50;23.10;52.00
10171;DHT22;5127;50.922;6.988;2022-08-14T06:05:18;23.10;51.70
10171;DHT22;5127;50.922;6.988;2022-08-14T06:07:47;23.20;51.70
10171;DHT22;5127;50.922;6.988;2022-08-14T06:10:14;23.30;51.80
10171;DHT22;5127;50.922;6.988;2022-08-14T06:12:41;23.30;51.80
10171;DHT22;5127;50.922;6.988;2022-08-14T06:15:09;23.40;51.90
10171;DHT22;5127;50.922;6.988;2022-08-14T06:17:43;23.50;51.90
10171;DHT22;5127;50.922;6.988;2022-08-14T06:20:12;23.60;52.20
10171;DHT22;5127;50.922;6.988;2022-08-14T06:22:40;23.60;52.00
10171;DHT22;5127;50.922;6.988;2022-08-14T06:25:11;23.70;52.00
10171;DHT22;5127;50.922;6.988;2022-08-14T06:27:40;23.80;52.10
10171;DHT22;5127;50.922;6.988;2022-08-14T06:30:09;23.90;52.70
10171;DHT22;5127;50.922;6.988;2022-08-14T06:32:37;24.00;52.00
10171;DHT22;5127;50.922;6.988;2022-08-14T06:35:06;24.10;51.90
10171;DHT22;5127;50.922;6.988;2022-08-14T06:37:41;24.20;52.00
10171;DHT22;5127;50.922;6.988;2022-08-14T06:40:13;24.30;52.20
10171;DHT22;5127;50.922;6.988;2022-08-14T06:42:41;24.40;52.10
10171;DHT22;5127;50.922;6.988;2022-08-14T06:45:09;24.50;52.00
10171;DHT22;5127;50.922;6.988;2022-08-14T06:47:38;24.50;51.80
10171;DHT22;5127;50.922;6.988;2022-08-14T06:50:09;24.60;51.80
10171;DHT22;5127;50.922;6.988;2022-08-14T06:52:37;24.70;51.80
10171;DHT22;5127;50.922;6.988;2022-08-14T06:55:06;24.80;51.60
10171;DHT22;5127;50.922;6.988;2022-08-14T06:57:37;24.90;51.70
10171;DHT22;5127;50.922;6.988;2022-08-14T07:00:08;25.00;51.90
10171;DHT22;5127;50.922;6.988;2022-08-14T07:02:36;25.30;52.60
10171;DHT22;5127;50.922;6.988;2022-08-14T07:05:21;25.60;53.30
10171;DHT22;5127;50.922;6.988;2022-08-14T07:08:11;26.10;53.70
10171;DHT22;5127;50.922;6.988;2022-08-14T07:10:39;26.70;53.40
10171;DHT22;5127;50.922;6.988;2022-08-14T07:13:11;27.40;53.50
10171;DHT22;5127;50.922;6.988;2022-08-14T07:15:39;28.00;53.00
10171;DHT22;5127;50.922;6.988;2022-08-14T07:18:07;28.70;52.60
10171;DHT22;5127;50.922;6.988;2022-08-14T07:20:35;29.50;51.80
10171;DHT22;5127;50.922;6.988;2022-08-14T07:23:04;30.10;51.20
10171;DHT22;5127;50.922;6.988;2022-08-14T07:25:32;30.70;50.30
10171;DHT22;5127;50.922;6.988;2022-08-14T07:28:00;31.40;49.40
10171;DHT22;5127;50.922;6.988;2022-08-14T07:30:35;31.90;48.70
10171;DHT22;5127;50.922;6.988;2022-08-14T07:33:03;32.60;47.90
10171;DHT22;5127;50.922;6.988;2022-08-14T07:35:30;33.10;47.20
10171;DHT22;5127;50.922;6.988;2022-08-14T07:37:58;33.70;46.30
10171;DHT22;5127;50.922;6.988;2022-08-14T07:40:25;34.10;45.70
10171;DHT22;5127;50.922;6.988;2022-08-14T07:42:53;34.60;44.90
10171;DHT22;5127;50.922;6.988;2022-08-14T07:45:20;35.10;43.80
10171;DHT22;5127;50.922;6.988;2022-08-14T07:47:49;35.50;42.90
10171;DHT22;5127;50.922;6.988;2022-08-14T07:50:17;35.90;41.90
10171;DHT22;5127;50.922;6.988;2022-08-14T07:52:47;36.20;41.10
10171;DHT22;5127;50.922;6.988;2022-08-14T07:55:16;36.40;40.70
10171;DHT22;5127;50.922;6.988;2022-08-14T07:57:46;36.70;40.10
10171;DHT22;5127;50.922;6.988;2022-08-14T08:00:15;37.00;40.00
10171;DHT22;5127;50.922;6.988;2022-08-14T08:02:45;37.20;39.20
10171;DHT22;5127;50.922;6.988;2022-08-14T08:05:15;37.40;38.90
10171;DHT22;5127;50.922;6.988;2022-08-14T08:07:45;37.60;38.50
10171;DHT22;5127;50.922;6.988;2022-08-14T08:10:14;37.80;37.50
10171;DHT22;5127;50.922;6.988;2022-08-14T08:12:59;37.90;37.10
10171;DHT22;5127;50.922;6.988;2022-08-14T08:15:28;38.00;36.90
10171;DHT22;5127;50.922;6.988;2022-08-14T08:17:58;38.00;36.70
10171;DHT22;5127;50.922;6.988;2022-08-14T08:20:31;38.00;36.60
10171;DHT22;5127;50.922;6.988;2022-08-14T08:23:00;38.10;35.90
10171;DHT22;5127;50.922;6.988;2022-08-14T08:25:29;38.20;36.50
10171;DHT22;5127;50.922;6.988;2022-08-14T08:28:00;38.30;35.80
10171;DHT22;5127;50.922;6.988;2022-08-14T08:30:29;38.40;35.70
10171;DHT22;5127;50.922;6.988;2022-08-14T08:32:58;38.50;35.30
10171;DHT22;5127;50.922;6.988;2022-08-14T08:35:33;38.60;35.30
10171;DHT22;5127;50.922;6.988;2022-08-14T08:38:02;38.70;34.90
10171;DHT22;5127;50.922;6.988;2022-08-14T08:40:32;38.80;34.50
10171;DHT22;5127;50.922;6.988;2022-08-14T08:43:02;38.80;33.90
10171;DHT22;5127;50.922;6.988;2022-08-14T08:45:32;38.80;34.00
10171;DHT22;5127;50.922;6.988;2022-08-14T08:48:00;38.90;34.20
10171;DHT22;5127;50.922;6.988;2022-08-14T08:50:30;38.90;33.90
10171;DHT22;5127;50.922;6.988;2022-08-14T08:53:02;38.90;33.60
10171;DHT22;5127;50.922;6.988;2022-08-14T08:55:33;39.00;33.40
10171;DHT22;5127;50.922;6.988;2022-08-14T08:58:02;39.00;33.10
10171;DHT22;5127;50.922;6.988;2022-08-14T09:00:31;39.10;33.30
10171;DHT22;5127;50.922;6.988;2022-08-14T09:03:02;39.10;33.30
10171;DHT22;5127;50.922;6.988;2022-08-14T09:05:32;39.10;33.30
10171;DHT22;5127;50.922;6.988;2022-08-14T09:08:13;39.10;32.80
10171;DHT22;5127;50.922;6.988;2022-08-14T09:10:40;39.10;32.90
10171;DHT22;5127;50.922;6.988;2022-08-14T09:13:08;39.10;32.90
10171;DHT22;5127;50.922;6.988;2022-08-14T09:15:39;39.20;32.70
10171;DHT22;5127;50.922;6.988;2022-08-14T09:18:07;39.30;32.60
10171;DHT22;5127;50.922;6.988;2022-08-14T09:20:37;39.30;32.70
10171;DHT22;5127;50.922;6.988;2022-08-14T09:23:05;39.20;32.20
10171;DHT22;5127;50.922;6.988;2022-08-14T09:25:35;39.40;31.90
10171;DHT22;5127;50.922;6.988;2022-08-14T09:28:02;39.40;31.70
10171;DHT22;5127;50.922;6.988;2022-08-14T09:30:31;39.50;31.40
10171;DHT22;5127;50.922;6.988;2022-08-14T09:36:05;39.50;30.40
10171;DHT22;5127;50.922;6.988;2022-08-14T09:38:45;39.40;30.50
10171;DHT22;5127;50.922;6.988;2022-08-14T09:41:29;39.40;30.70
10171;DHT22;5127;50.922;6.988;2022-08-14T09:44:05;39.30;30.30
10171;DHT22;5127;50.922;6.988;2022-08-14T09:46:34;39.10;30.10
10171;DHT22;5127;50.922;6.988;2022-08-14T09:49:04;39.00;30.00
10171;DHT22;5127;50.922;6.988;2022-08-14T09:51:33;38.90;29.80
10171;DHT22;5127;50.922;6.988;2022-08-14T09:54:04;38.70;29.70
10171;DHT22;5127;50.922;6.988;2022-08-14T09:56:46;38.50;29.50
10171;DHT22;5127;50.922;6.988;2022-08-14T09:59:15;38.20;29.70
10171;DHT22;5127;50.922;6.988;2022-08-14T10:01:47;38.00;29.60
10171;DHT22;5127;50.922;6.988;2022-08-14T10:04:19;37.80;29.70
10171;DHT22;5127;50.922;6.988;2022-08-14T10:06:49;37.60;29.90
10171;DHT22;5127;50.922;6.988;2022-08-14T10:09:17;37.40;30.30
10171;DHT22;5127;50.922;6.988;2022-08-14T10:11:55;37.20;30.20
10171;DHT22;5127;50.922;6.988;2022-08-14T10:14:24;37.00;30.20
10171;DHT22;5127;50.922;6.988;2022-08-14T10:16:53;36.80;30.00
10171;DHT22;5127;50.922;6.988;2022-08-14T10:19:23;36.60;30.20
10171;DHT22;5127;50.922;6.988;2022-08-14T10:21:57;36.40;30.30
10171;DHT22;5127;50.922;6.988;2022-08-14T10:24:29;36.20;30.30
10171;DHT22;5127;50.922;6.988;2022-08-14T10:27:00;35.90;30.30
10171;DHT22;5127;50.922;6.988;2022-08-14T10:29:32;35.80;30.50
10171;DHT22;5127;50.922;6.988;2022-08-14T10:32:00;35.60;30.70
10171;DHT22;5127;50.922;6.988;2022-08-14T10:34:32;35.40;30.90
10171;DHT22;5127;50.922;6.988;2022-08-14T10:37:04;35.30;30.90
10171;DHT22;5127;50.922;6.988;2022-08-14T10:39:33;35.10;30.80
10171;DHT22;5127;50.922;6.988;2022-08-14T10:42:05;35.10;31.00
10171;DHT22;5127;50.922;6.988;2022-08-14T10:44:34;34.90;30.80
10171;DHT22;5127;50.922;6.988;2022-08-14T10:47:04;34.80;30.80
10171;DHT22;5127;50.922;6.988;2022-08-14T10:49:33;34.70;31.00
10171;DHT22;5127;50.922;6.988;2022-08-14T10:52:06;34.60;31.10
10171;DHT22;5127;50.922;6.988;2022-08-14T10:54:38;34.60;30.80
10171;DHT22;5127;50.922;6.988;2022-08-14T10:57:16;34.40;30.70
10171;DHT22;5127;50.922;6.988;2022-08-14T10:59:48;34.40;30.60
10171;DHT22;5127;50.922;6.988;2022-08-14T11:02:21;34.40;30.70
10171;DHT22;5127;50.922;6.988;2022-08-14T11:05:00;34.30;30.70
10171;DHT22;5127;50.922;6.988;2022-08-14T11:07:29;34.30;30.90
10171;DHT22;5127;50.922;6.988;2022-08-14T11:09:57;34.30;31.10
10171;DHT22;5127;50.922;6.988;2022-08-14T11:12:39;34.30;31.10
10171;DHT22;5127;50.922;6.988;2022-08-14T11:15:08;34.30;31.00
10171;DHT22;5127;50.922;6.988;2022-08-14T11:17:35;34.30;31.10
10171;DHT22;5127;50.922;6.988;2022-08-14T11:20:05;34.30;31.10
10171;DHT22;5127;50.922;6.988;2022-08-14T11:22:33;34.30;31.70
10171;DHT22;5127;50.922;6.988;2022-08-14T11:25:05;34.30;31.00
10171;DHT22;5127;50.922;6.988;2022-08-14T11:27:34;34.30;30.90
10171;DHT22;5127;50.922;6.988;2022-08-14T11:30:05;34.30;30.90
10171;DHT22;5127;50.922;6.988;2022-08-14T11:32:33;34.30;30.90
10171;DHT22;5127;50.922;6.988;2022-08-14T11:35:01;34.40;31.00
10171;DHT22;5127;50.922;6.988;2022-08-14T11:37:29;34.30;30.90
10171;DHT22;5127;50.922;6.988;2022-08-14T11:39:59;34.30;31.00
10171;DHT22;5127;50.922;6.988;2022-08-14T11:42:27;34.30;30.90
10171;DHT22;5127;50.922;6.988;2022-08-14T11:45:03;34.30;31.10
10171;DHT22;5127;50.922;6.988;2022-08-14T11:47:31;34.40;31.10
10171;DHT22;5127;50.922;6.988;2022-08-14T11:49:59;34.40;31.00
10171;DHT22;5127;50.922;6.988;2022-08-14T11:52:33;34.40;30.90
10171;DHT22;5127;50.922;6.988;2022-08-14T11:55:07;34.40;30.70
10171;DHT22;5127;50.922;6.988;2022-08-14T11:57:37;34.40;30.50
10171;DHT22;5127;50.922;6.988;2022-08-14T12:00:08;34.40;30.60
10171;DHT22;5127;50.922;6.988;2022-08-14T12:02:48;34.40;30.50
10171;DHT22;5127;50.922;6.988;2022-08-14T12:05:16;34.50;30.90
10171;DHT22;5127;50.922;6.988;2022-08-14T12:07:56;34.40;30.90
10171;DHT22;5127;50.922;6.988;2022-08-14T12:10:24;34.30;30.90
10171;DHT22;5127;50.922;6.988;2022-08-14T12:12:52;34.40;31.00
10171;DHT22;5127;50.922;6.988;2022-08-14T12:15:30;34.40;30.90
10171;DHT22;5127;50.922;6.988;2022-08-14T12:17:58;34.40;30.90
10171;DHT22;5127;50.922;6.988;2022-08-14T12:20:31;34.40;31.00
10171;DHT22;5127;50.922;6.988;2022-08-14T12:22:59;34.50;30.70
10171;DHT22;5127;50.922;6.988;2022-08-14T12:25:28;34.50;30.90
10171;DHT22;5127;50.922;6.988;2022-08-14T12:27:57;34.70;30.90
10171;DHT22;5127;50.922;6.988;2022-08-14T12:30:30;34.70;31.00
10171;DHT22;5127;50.922;6.988;2022-08-14T12:32:58;34.70;30.90
10171;DHT22;5127;50.922;6.988;2022-08-14T12:35:41;34.80;30.90
10171;DHT22;5127;50.922;6.988;2022-08-14T12:38:09;34.90;30.90
10171;DHT22;5127;50.922;6.988;2022-08-14T12:40:45;35.00;30.70
10171;DHT22;5127;50.922;6.988;2022-08-14T12:43:13;35.00;30.40
10171;DHT22;5127;50.922;6.988;2022-08-14T12:45:48;35.10;30.60
10171;DHT22;5127;50.922;6.988;2022-08-14T12:48:17;35.10;30.40
10171;DHT22;5127;50.922;6.988;2022-08-14T12:50:45;35.00;30.40
10171;DHT22;5127;50.922;6.988;2022-08-14T12:53:13;35.20;30.50
10171;DHT22;5127;50.922;6.988;2022-08-14T12:55:42;35.20;30.50
10171;DHT22;5127;50.922;6.988;2022-08-14T12:58:10;35.20;30.50
10171;DHT22;5127;50.922;6.988;2022-08-14T13:00:47;35.10;30.40
10171;DHT22;5127;50.922;6.988;2022-08-14T13:03:23;35.10;30.10
10171;DHT22;5127;50.922;6.988;2022-08-14T13:05:51;35.00;30.40
10171;DHT22;5127;50.922;6.988;2022-08-14T13:08:19;35.00;30.40
10171;DHT22;5127;50.922;6.988;2022-08-14T13:10:49;35.00;30.60
10171;DHT22;5127;50.922;6.988;2022-08-14T13:13:18;34.90;30.70
10171;DHT22;5127;50.922;6.988;2022-08-14T13:15:47;34.80;30.60
10171;DHT22;5127;50.922;6.988;2022-08-14T13:18:20;34.80;30.50
10171;DHT22;5127;50.922;6.988;2022-08-14T13:20:48;34.70;30.50
10171;DHT22;5127;50.922;6.988;2022-08-14T13:23:17;34.70;30.30
10171;DHT22;5127;50.922;6.988;2022-08-14T13:25:49;34.70;30.30
10171;DHT22;5127;50.922;6.988;2022-08-14T13:28:18;34.70;30.30
10171;DHT22;5127;50.922;6.988;2022-08-14T13:30:48;34.70;30.50
10171;DHT22;5127;50.922;6.988;2022-08-14T13:33:16;34.60;30.50
10171;DHT22;5127;50.922;6.988;2022-08-14T13:35:48;34.60;30.40
10171;DHT22;5127;50.922;6.988;2022-08-14T13:38:17;34.60;30.50
10171;DHT22;5127;50.922;6.988;2022-08-14T13:40:46;34.50;30.50
10171;DHT22;5127;50.922;6.988;2022-08-14T13:43:19;34.40;30.50
10171;DHT22;5127;50.922;6.988;2022-08-14T13:45:48;34.40;30.50
10171;DHT22;5127;50.922;6.988;2022-08-14T13:48:16;34.40;30.70
10171;DHT22;5127;50.922;6.988;2022-08-14T13:50:44;34.40;30.70
10171;DHT22;5127;50.922;6.988;2022-08-14T13:53:15;34.40;30.70
10171;DHT22;5127;50.922;6.988;2022-08-14T13:55:43;34.30;30.70
10171;DHT22;5127;50.922;6.988;2022-08-14T13:58:14;34.30;30.70
10171;DHT22;5127;50.922;6.988;2022-08-14T14:00:43;34.30;30.90
10171;DHT22;5127;50.922;6.988;2022-08-14T14:03:14;34.40;30.90
10171;DHT22;5127;50.922;6.988;2022-08-14T14:05:42;34.40;30.90
10171;DHT22;5127;50.922;6.988;2022-08-14T14:08:10;34.40;30.90
10171;DHT22;5127;50.922;6.988;2022-08-14T14:10:38;34.40;30.80
10171;DHT22;5127;50.922;6.988;2022-08-14T14:13:07;34.50;30.80
10171;DHT22;5127;50.922;6.988;2022-08-14T14:15:35;34.50;30.70
10171;DHT22;5127;50.922;6.988;2022-08-14T14:18:03;34.50;30.80
10171;DHT22;5127;50.922;6.988;2022-08-14T14:20:31;34.50;30.50
10171;DHT22;5127;50.922;6.988;2022-08-14T14:22:59;34.60;30.50
10171;DHT22;5127;50.922;6.988;2022-08-14T14:25:27;34.60;30.60
10171;DHT22;5127;50.922;6.988;2022-08-14T14:27:55;34.50;30.50
10171;DHT22;5127;50.922;6.988;2022-08-14T14:30:25;34.50;30.60
10171;DHT22;5127;50.922;6.988;2022-08-14T14:32:55;34.50;30.40
10171;DHT22;5127;50.922;6.988;2022-08-14T14:35:23;34.50;30.10
10171;DHT22;5127;50.922;6.988;2022-08-14T14:37:54;34.50;30.10
10171;DHT22;5127;50.922;6.988;2022-08-14T14:40:22;34.40;30.00
10171;DHT22;5127;50.922;6.988;2022-08-14T14:42:51;34.40;29.90
10171;DHT22;5127;50.922;6.988;2022-08-14T14:45:19;34.40;29.80
10171;DHT22;5127;50.922;6.988;2022-08-14T14:47:50;34.40;30.00
10171;DHT22;5127;50.922;6.988;2022-08-14T14:50:18;34.40;30.00
10171;DHT22;5127;50.922;6.988;2022-08-14T14:52:46;34.50;29.80
10171;DHT22;5127;50.922;6.988;2022-08-14T14:55:18;34.40;29.90
10171;DHT22;5127;50.922;6.988;2022-08-14T14:57:46;34.40;29.90
10171;DHT22;5127;50.922;6.988;2022-08-14T15:00:16;34.50;29.90
10171;DHT22;5127;50.922;6.988;2022-08-14T15:02:45;34.50;29.80
10171;DHT22;5127;50.922;6.988;2022-08-14T15:05:14;34.60;29.80
10171;DHT22;5127;50.922;6.988;2022-08-14T15:07:43;34.60;29.80
10171;DHT22;5127;50.922;6.988;2022-08-14T15:10:12;34.60;29.80
10171;DHT22;5127;50.922;6.988;2022-08-14T15:12:41;34.70;29.90
10171;DHT22;5127;50.922;6.988;2022-08-14T15:15:11;34.70;30.20
10171;DHT22;5127;50.922;6.988;2022-08-14T15:17:39;34.80;29.80
10171;DHT22;5127;50.922;6.988;2022-08-14T15:20:10;34.90;29.70
10171;DHT22;5127;50.922;6.988;2022-08-14T15:22:38;35.00;29.60
10171;DHT22;5127;50.922;6.988;2022-08-14T15:25:07;35.00;29.60
10171;DHT22;5127;50.922;6.988;2022-08-14T15:27:35;35.10;29.50
10171;DHT22;5127;50.922;6.988;2022-08-14T15:30:07;35.10;29.50
10171;DHT22;5127;50.922;6.988;2022-08-14T15:32:34;35.20;29.40
10171;DHT22;5127;50.922;6.988;2022-08-14T15:35:02;35.20;29.40
10171;DHT22;5127;50.922;6.988;2022-08-14T15:37:29;35.20;29.30
10171;DHT22;5127;50.922;6.988;2022-08-14T15:39:56;35.20;29.30
10171;DHT22;5127;50.922;6.988;2022-08-14T15:42:24;35.20;28.80
10171;DHT22;5127;50.922;6.988;2022-08-14T15:44:52;35.20;29.20
10171;DHT22;5127;50.922;6.988;2022-08-14T15:47:21;35.20;29.20
10171;DHT22;5127;50.922;6.988;2022-08-14T15:49:48;35.10;29.10
10171;DHT22;5127;50.922;6.988;2022-08-14T15:52:19;35.20;29.10
10171;DHT22;5127;50.922;6.988;2022-08-14T15:54:48;35.20;29.10
10171;DHT22;5127;50.922;6.988;2022-08-14T15:57:15;35.10;29.10
10171;DHT22;5127;50.922;6.988;2022-08-14T15:59:44;35.20;29.20
10171;DHT22;5127;50.922;6.988;2022-08-14T16:02:36;35.10;29.20
10171;DHT22;5127;50.922;6.988;2022-08-14T16:05:04;35.20;29.20